Time;durP1;ratioP1;P1;durP2;ratioP2;P2;SDS_P1;SDS_P2;PMS_P1;PMS_P2;Temp;Humidity;BMP_temperature;BMP_pressure;BME280_temperature;BME280_humidity;BME280_pressure;Samples;Min_cycle;Max_cycle;Signal;HPM_P1;HPM_P2
2024/02/03 00:00:03;;;;;;;27.42;16.23;;;9.70;99.90;;;13.16;100.00;101306.94;5033144;28;20037;-79
2024/02/03 00:02:29;;;;;;;24.90;16.83;;;9.80;99.90;;;13.27;100.00;101314.50;5031665;28;20068;-80
2024/02/03 00:04:55;;;;;;;24.77;15.95;;;9.80;99.90;;;13.15;100.00;101317.09;5032717;28;20393;-78
2024/02/03 00:07:21;;;;;;;25.63;15.68;;;9.90;99.90;;;13.43;100.00;101315.06;5033247;28;20037;-79
2024/02/03 00:09:49;;;;;;;28.27;15.93;;;9.90;99.90;;;13.21;100.00;101320.81;5014323;28;20489;-80
2024/02/03 00:12:16;;;;;;;25.30;16.08;;;9.80;99.90;;;13.31;100.00;101309.41;5032599;28;20038;-79
2024/02/03 00:14:41;;;;;;;24.80;16.30;;;9.90;99.90;;;13.06;100.00;101302.78;5032694;28;20504;-80
2024/02/03 00:17:07;;;;;;;26.35;16.35;;;9.90;99.90;;;13.13;100.00;101323.81;5031379;28;20042;-78
2024/02/03 00:19:33;;;;;;;32.45;16.92;;;9.90;99.90;;;13.17;100.00;101325.06;5028542;28;20033;-78
2024/02/03 00:21:59;;;;;;;27.75;16.95;;;9.90;99.90;;;13.31;100.00;101318.47;5014500;28;20037;-78
2024/02/03 00:24:26;;;;;;;29.27;18.20;;;9.90;99.90;;;13.38;100.00;101311.06;5029085;28;20460;-79
2024/02/03 00:26:53;;;;;;;25.27;17.23;;;9.90;99.90;;;13.50;100.00;101304.88;5032006;28;20103;-80
2024/02/03 00:29:19;;;;;;;31.10;17.92;;;9.80;99.90;;;13.33;100.00;101299.06;5015080;28;20042;-78
2024/02/03 00:31:45;;;;;;;31.02;17.30;;;9.80;99.90;;;13.18;100.00;101324.00;5028617;28;20099;-79
2024/02/03 00:34:10;;;;;;;29.20;18.45;;;9.80;99.90;;;13.08;100.00;101316.25;5014143;28;20045;-80
2024/02/03 00:36:36;;;;;;;32.58;19.00;;;9.80;99.90;;;13.38;100.00;101286.38;5032220;28;20048;-80
2024/02/03 00:39:03;;;;;;;30.95;18.45;;;9.80;99.90;;;13.35;100.00;101284.09;5030772;28;20501;-79
2024/02/03 00:41:29;;;;;;;32.28;19.02;;;9.80;99.90;;;13.21;100.00;101277.00;5031345;28;20037;-79
2024/02/03 00:43:54;;;;;;;33.40;19.52;;;9.90;99.90;;;13.29;100.00;101317.84;5032311;28;20034;-81
2024/02/03 00:46:20;;;;;;;29.40;18.83;;;9.90;99.90;;;13.25;100.00;101283.72;5031820;28;20521;-79
2024/02/03 00:48:46;;;;;;;29.98;18.30;;;9.90;99.90;;;13.52;100.00;101300.88;5014573;28;20037;-79
2024/02/03 00:51:12;;;;;;;28.30;17.88;;;9.90;99.90;;;13.20;100.00;101267.94;5029639;28;20053;-79
2024/02/03 00:53:41;;;;;;;31.33;19.00;;;9.90;99.90;;;13.38;100.00;101277.31;5032200;28;20032;-78
2024/02/03 00:56:08;;;;;;;28.13;18.30;;;9.90;99.90;;;13.19;100.00;101279.97;5013137;28;20041;-77
2024/02/03 00:58:34;;;;;;;31.10;17.60;;;9.90;99.90;;;13.02;100.00;101289.72;5031958;28;20164;-79
2024/02/03 01:01:00;;;;;;;27.90;16.95;;;9.90;99.90;;;13.36;100.00;101274.81;5030961;28;20052;-80
2024/02/03 01:03:26;;;;;;;28.33;18.00;;;10.00;99.90;;;13.20;100.00;101267.09;5013781;28;20061;-79
2024/02/03 01:05:52;;;;;;;29.83;17.25;;;10.00;99.90;;;13.18;100.00;101270.06;5031567;28;20037;-78
2024/02/03 01:08:19;;;;;;;27.23;17.77;;;10.00;99.90;;;13.44;100.00;101281.09;5029437;28;20029;-80
2024/02/03 01:10:45;;;;;;;26.58;17.30;;;10.00;99.90;;;13.42;100.00;101273.09;5014419;28;20397;-78
2024/02/03 01:13:11;;;;;;;27.08;16.70;;;10.10;99.90;;;13.52;100.00;101283.56;5015126;28;20041;-77
2024/02/03 01:15:37;;;;;;;26.73;16.95;;;10.10;99.90;;;13.51;100.00;101269.06;5030669;28;20069;-79
2024/02/03 01:18:03;;;;;;;27.90;16.88;;;10.10;99.90;;;13.32;100.00;101270.84;5031588;28;20045;-80
2024/02/03 01:20:30;;;;;;;27.63;16.45;;;10.10;99.90;;;13.51;100.00;101271.78;5031415;28;20124;-79
2024/02/03 01:22:55;;;;;;;25.02;16.35;;;10.10;99.90;;;13.64;100.00;101268.13;5012815;28;20052;-80
2024/02/03 01:25:21;;;;;;;25.67;15.13;;;10.10;99.90;;;13.41;100.00;101278.78;5013748;28;20409;-80
2024/02/03 01:27:47;;;;;;;23.63;15.27;;;10.20;99.90;;;13.53;100.00;101268.84;5031415;28;20029;-79
2024/02/03 01:30:13;;;;;;;24.77;16.15;;;10.20;99.90;;;13.56;100.00;101248.34;5031048;28;20143;-79
2024/02/03 01:32:38;;;;;;;24.40;15.45;;;10.20;99.90;;;13.56;100.00;101267.53;5013357;28;20370;-80
2024/02/03 01:35:05;;;;;;;27.17;16.40;;;10.20;99.90;;;13.68;100.00;101259.44;5031111;28;20116;-80
2024/02/03 01:37:31;;;;;;;25.73;15.07;;;10.20;99.90;;;13.95;100.00;101269.13;5030546;28;20041;-80
2024/02/03 01:39:56;;;;;;;23.85;15.48;;;10.10;99.90;;;13.65;100.00;101267.06;5031093;28;20033;-79
2024/02/03 01:42:22;;;;;;;23.55;14.85;;;10.10;99.90;;;13.74;100.00;101264.03;5030750;28;20130;-80
2024/02/03 01:44:48;;;;;;;26.90;16.63;;;10.10;99.90;;;13.73;100.00;101267.84;5030885;28;20401;-81
2024/02/03 01:47:16;;;;;;;26.33;16.67;;;10.10;99.90;;;13.67;100.00;101255.88;5031388;28;20557;-80
2024/02/03 01:49:42;;;;;;;27.02;17.70;;;10.10;99.90;;;13.87;100.00;101274.91;5031031;28;20045;-79
2024/02/03 01:52:11;;;;;;;27.25;16.73;;;10.10;99.90;;;13.85;100.00;101277.03;5030196;28;20037;-80
2024/02/03 01:54:37;;;;;;;29.63;17.75;;;10.10;99.90;;;13.76;100.00;101270.13;5030931;28;20443;-79
2024/02/03 01:57:05;;;;;;;29.08;17.98;;;10.10;99.90;;;13.62;100.00;101266.66;5030666;28;20064;-80
2024/02/03 01:59:32;;;;;;;30.70;17.70;;;10.10;99.90;;;13.72;100.00;101279.88;5030851;28;20048;-79
2024/02/03 02:02:01;;;;;;;29.30;17.83;;;10.10;99.90;;;13.42;100.00;101266.75;5030401;28;20120;-79
2024/02/03 02:04:29;;;;;;;28.17;17.85;;;10.10;99.90;;;13.70;100.00;101274.63;5028176;28;20408;-80
2024/02/03 02:06:58;;;;;;;27.25;17.63;;;10.10;99.90;;;13.71;100.00;101275.44;5030592;28;20038;-80
2024/02/03 02:09:26;;;;;;;27.77;17.83;;;10.10;99.90;;;13.64;100.00;101264.53;4996402;28;20042;-79
2024/02/03 02:11:54;;;;;;;30.30;18.05;;;10.10;99.90;;;13.70;100.00;101271.88;5030306;28;20041;-80
2024/02/03 02:14:23;;;;;;;28.80;17.45;;;10.10;99.90;;;13.70;100.00;101262.78;5012212;28;20037;-79
2024/02/03 02:16:49;;;;;;;29.38;17.50;;;10.10;99.90;;;13.55;100.00;101255.75;5011944;28;20033;-79
2024/02/03 02:19:19;;;;;;;27.67;17.33;;;10.10;99.90;;;13.62;100.00;101255.69;5030363;28;20033;-80
2024/02/03 02:21:45;;;;;;;27.20;17.58;;;10.10;99.90;;;13.93;100.00;101274.00;5029228;28;20032;-79
2024/02/03 02:24:13;;;;;;;27.80;17.77;;;10.10;99.90;;;13.71;100.00;101267.22;5010780;28;20049;-79
2024/02/03 02:26:38;;;;;;;27.38;17.17;;;10.20;99.90;;;13.59;100.00;101287.13;5029131;28;20466;-79
2024/02/03 02:29:04;;;;;;;27.88;18.02;;;10.10;99.90;;;13.59;100.00;101262.47;5030147;28;20036;-79
2024/02/03 02:31:30;;;;;;;25.40;16.90;;;10.10;99.90;;;13.42;100.00;101269.50;5030055;28;20776;-79
2024/02/03 02:33:56;;;;;;;24.95;15.98;;;10.10;99.90;;;13.54;100.00;101251.34;5029871;28;20088;-79
2024/02/03 02:36:22;;;;;;;24.52;16.35;;;10.10;99.90;;;13.37;100.00;101259.19;5029550;28;20037;-78
2024/02/03 02:38:48;;;;;;;25.75;16.67;;;10.10;99.90;;;13.55;100.00;101271.34;5030448;28;20538;-78
2024/02/03 02:41:13;;;;;;;26.30;17.35;;;10.10;99.90;;;13.61;100.00;101265.81;5010183;28;20100;-78
2024/02/03 02:43:39;;;;;;;25.95;16.33;;;10.10;99.90;;;13.73;100.00;101263.19;5012898;28;20485;-78
2024/02/03 02:46:05;;;;;;;26.17;16.33;;;10.10;99.90;;;13.54;100.00;101256.81;5029931;28;20033;-79
2024/02/03 02:48:31;;;;;;;26.60;17.67;;;10.10;99.90;;;13.65;100.00;101263.44;5029639;28;20085;-78
2024/02/03 02:50:56;;;;;;;25.63;15.98;;;10.10;99.90;;;13.42;100.00;101272.25;5029613;28;20045;-78
2024/02/03 02:53:22;;;;;;;26.13;15.98;;;10.10;99.90;;;13.56;100.00;101292.22;5029871;28;20038;-78
2024/02/03 02:55:48;;;;;;;26.50;15.13;;;10.10;99.90;;;13.53;100.00;101263.34;5029617;28;20046;-78
2024/02/03 02:58:14;;;;;;;24.13;15.75;;;10.00;99.90;;;13.53;100.00;101263.34;5029692;28;20076;-79
2024/02/03 03:00:39;;;;;;;26.15;15.93;;;10.00;99.90;;;13.64;100.00;101257.16;5029279;28;20056;-78
2024/02/03 03:03:05;;;;;;;22.75;14.98;;;10.00;99.90;;;13.16;100.00;101243.94;5030380;28;20045;-78
2024/02/03 03:05:31;;;;;;;24.73;15.50;;;10.00;99.90;;;13.28;100.00;101260.53;5029680;28;20041;-78
2024/02/03 03:07:56;;;;;;;23.92;15.73;;;10.00;99.90;;;13.39;100.00;101257.06;5030568;28;20025;-78
2024/02/03 03:10:22;;;;;;;25.27;15.90;;;10.00;99.90;;;13.55;100.00;101258.50;5029049;28;20044;-78
2024/02/03 03:12:48;;;;;;;23.02;14.75;;;10.00;99.90;;;13.65;100.00;101260.72;5029735;28;20041;-79
2024/02/03 03:15:13;;;;;;;25.17;15.63;;;9.90;99.90;;;13.39;100.00;101279.00;5020994;28;20474;-78
2024/02/03 03:17:39;;;;;;;25.15;15.73;;;9.90;99.90;;;13.33;100.00;101267.03;5029776;28;20029;-77
2024/02/03 03:20:07;;;;;;;25.40;15.32;;;9.90;99.90;;;13.55;100.00;101257.63;5029772;28;20465;-78
2024/02/03 03:22:33;;;;;;;24.08;15.13;;;9.90;99.90;;;13.47;100.00;101266.97;5029955;28;20041;-78
2024/02/03 03:24:58;;;;;;;27.02;15.88;;;9.80;99.90;;;13.44;100.00;101250.97;5029077;28;20084;-78
2024/02/03 03:27:24;;;;;;;23.52;15.70;;;9.80;99.90;;;12.85;100.00;101262.81;5028645;28;20443;-78
2024/02/03 03:29:50;;;;;;;28.38;16.70;;;9.70;99.90;;;13.14;100.00;101255.13;5011758;28;20048;-79
2024/02/03 03:32:16;;;;;;;26.38;15.75;;;9.70;99.90;;;13.23;100.00;101248.31;5029482;28;20563;-79
2024/02/03 03:34:42;;;;;;;27.52;16.63;;;9.60;99.90;;;13.22;100.00;101241.16;5030284;28;20116;-80
2024/02/03 03:37:08;;;;;;;29.10;16.05;;;9.50;99.90;;;12.95;100.00;101259.63;5010713;28;20121;-78
2024/02/03 03:39:34;;;;;;;30.10;16.95;;;9.50;99.90;;;12.96;100.00;101239.41;5006184;28;20034;-76
2024/02/03 03:41:59;;;;;;;28.33;16.40;;;9.50;99.90;;;12.82;100.00;101251.50;5010342;28;20038;-76
2024/02/03 03:44:25;;;;;;;29.25;16.75;;;9.50;99.90;;;13.18;100.00;101233.59;5029476;28;20037;-77
2024/02/03 03:46:51;;;;;;;26.35;16.27;;;9.40;99.90;;;12.97;100.00;101248.47;5029329;28;20464;-76
2024/02/03 03:49:18;;;;;;;27.67;16.90;;;9.40;99.90;;;12.98;100.00;101245.50;5028377;28;20040;-76
2024/02/03 03:51:45;;;;;;;27.35;15.70;;;9.40;99.90;;;12.70;100.00;101232.97;5028545;28;20041;-77
2024/02/03 03:54:11;;;;;;;30.58;17.23;;;9.40;99.90;;;12.99;100.00;101243.63;5028906;28;20437;-77
2024/02/03 03:56:36;;;;;;;29.33;16.48;;;9.40;99.90;;;12.59;100.00;101256.41;5028738;28;20037;-77
2024/02/03 03:59:02;;;;;;;28.55;15.73;;;9.40;99.90;;;12.57;100.00;101260.41;5028643;28;20040;-77
2024/02/03 04:01:28;;;;;;;30.15;16.10;;;9.40;99.90;;;12.48;100.00;101246.13;5029070;28;20520;-76
2024/02/03 04:03:54;;;;;;;28.42;15.23;;;9.40;99.90;;;12.63;100.00;101237.66;5028507;28;20516;-77
2024/02/03 04:06:19;;;;;;;27.98;16.30;;;9.30;99.90;;;12.74;100.00;101247.94;5029924;28;20034;-76
2024/02/03 04:08:45;;;;;;;27.15;14.55;;;9.30;99.90;;;12.84;100.00;101263.06;5006535;28;20037;-76
2024/02/03 04:11:11;;;;;;;31.58;16.02;;;9.30;99.90;;;12.56;100.00;101253.25;5016891;28;20528;-76
2024/02/03 04:13:39;;;;;;;25.80;14.18;;;9.30;99.90;;;12.83;100.00;101255.91;5028206;28;20489;-76
2024/02/03 04:16:06;;;;;;;26.40;14.75;;;9.30;99.90;;;12.80;100.00;101258.03;5013973;28;20037;-76
2024/02/03 04:18:31;;;;;;;26.77;14.35;;;9.30;99.90;;;13.08;100.00;101236.81;5028548;28;20038;-76
2024/02/03 04:20:57;;;;;;;26.30;14.35;;;9.30;99.90;;;13.09;100.00;101242.09;5029141;28;20033;-77
2024/02/03 04:23:23;;;;;;;28.33;15.10;;;9.30;99.90;;;12.95;100.00;101249.53;5024892;28;20033;-76
2024/02/03 04:25:48;;;;;;;24.90;13.77;;;9.30;99.90;;;12.91;100.00;101250.19;5030028;28;20396;-78
2024/02/03 04:28:14;;;;;;;24.40;13.50;;;9.30;99.90;;;13.02;100.00;101263.19;5032167;28;20048;-78
2024/02/03 04:30:40;;;;;;;21.98;12.70;;;9.30;99.90;;;13.15;100.00;101245.84;5031563;28;20069;-79
2024/02/03 04:33:05;;;;;;;23.23;12.57;;;9.30;99.90;;;13.09;100.00;101258.53;5032390;28;20052;-78
2024/02/03 04:35:33;;;;;;;23.65;12.75;;;9.40;99.90;;;12.90;100.00;101260.31;5016942;28;20052;-78
2024/02/03 04:38:02;;;;;;;20.58;11.73;;;9.40;99.90;;;12.99;100.00;101236.22;5032832;28;20547;-78
2024/02/03 04:40:28;;;;;;;20.85;11.32;;;9.40;99.90;;;13.16;100.00;101239.31;5030484;28;20042;-78
2024/02/03 04:42:54;;;;;;;20.15;11.45;;;9.40;99.90;;;12.94;100.00;101255.22;5009457;28;20042;-77
2024/02/03 04:45:20;;;;;;;20.48;11.65;;;9.50;99.90;;;12.97;100.00;101240.25;5028131;28;20033;-78
2024/02/03 04:47:47;;;;;;;19.10;11.13;;;9.40;99.90;;;13.11;100.00;101251.97;5031454;28;20067;-78
2024/02/03 04:50:13;;;;;;;18.20;10.20;;;9.40;99.90;;;13.16;100.00;101241.19;5028994;28;20055;-81
2024/02/03 04:52:39;;;;;;;18.45;10.85;;;9.40;99.90;;;12.75;100.00;101246.88;5030577;28;20124;-79
2024/02/03 04:55:05;;;;;;;20.02;11.00;;;9.40;99.90;;;12.97;100.00;101240.25;5031906;28;20036;-79
2024/02/03 04:57:31;;;;;;;18.73;10.32;;;9.40;99.90;;;13.01;100.00;101247.81;5028077;28;20049;-79
2024/02/03 04:59:57;;;;;;;19.80;10.27;;;9.40;99.90;;;13.15;100.00;101243.13;5028238;28;20037;-78
2024/02/03 05:02:22;;;;;;;17.25;10.48;;;9.40;99.90;;;12.68;100.00;101248.78;5032027;28;20068;-79
2024/02/03 05:04:48;;;;;;;18.65;10.45;;;9.40;99.90;;;13.00;100.00;101234.34;5030479;28;20037;-78
2024/02/03 05:07:14;;;;;;;18.00;10.43;;;9.40;99.90;;;12.75;100.00;101235.09;5032210;28;20029;-80
2024/02/03 05:09:39;;;;;;;18.83;10.63;;;9.40;99.90;;;12.73;100.00;101243.53;5013398;28;20046;-78
2024/02/03 05:12:06;;;;;;;19.73;10.57;;;9.40;99.90;;;12.67;100.00;101258.06;5031894;28;20030;-78
2024/02/03 05:14:31;;;;;;;18.35;10.73;;;9.40;99.90;;;12.75;100.00;101235.94;5033756;28;20467;-78
2024/02/03 05:16:59;;;;;;;17.77;10.85;;;9.40;99.90;;;12.87;100.00;101237.97;5040251;28;20037;-77
2024/02/03 05:19:26;;;;;;;20.20;11.53;;;9.40;99.90;;;12.38;100.00;101219.22;5038973;28;20037;-76
2024/02/03 05:21:52;;;;;;;19.13;11.20;;;9.40;99.90;;;12.89;100.00;101227.66;5033188;28;20045;-76
2024/02/03 05:24:17;;;;;;;20.33;10.90;;;9.30;99.90;;;12.87;100.00;101255.25;5028607;28;20045;-76
2024/02/03 05:26:43;;;;;;;20.98;11.27;;;9.30;99.90;;;12.73;100.00;101232.59;5033218;28;20037;-76
2024/02/03 05:29:09;;;;;;;19.42;10.90;;;9.30;99.90;;;12.57;100.00;101242.09;5032751;28;20029;-76
2024/02/03 05:31:35;;;;;;;22.48;10.77;;;9.30;99.90;;;12.54;100.00;101222.53;5033845;28;20412;-77
2024/02/03 05:34:00;;;;;;;21.35;10.93;;;9.30;99.90;;;12.57;100.00;101216.63;5033936;28;20036;-77
2024/02/03 05:36:26;;;;;;;19.83;10.68;;;9.30;99.90;;;12.50;100.00;101228.44;5032366;28;20374;-77
2024/02/03 05:38:52;;;;;;;17.15;10.02;;;9.30;99.90;;;12.58;100.00;101212.84;5033915;28;20108;-77
2024/02/03 05:41:17;;;;;;;18.20;10.43;;;9.30;99.90;;;12.58;100.00;101202.72;5034140;28;20037;-77
2024/02/03 05:43:43;;;;;;;20.42;10.57;;;9.30;99.90;;;12.73;100.00;101205.19;5033532;28;20084;-77
2024/02/03 05:46:09;;;;;;;20.05;10.68;;;9.30;99.90;;;12.86;100.00;101203.44;5031382;28;20049;-77
2024/02/03 05:48:34;;;;;;;18.40;9.52;;;9.30;99.90;;;12.66;100.00;101207.09;5034451;28;20810;-77
2024/02/03 05:51:00;;;;;;;19.08;10.52;;;9.20;99.90;;;12.63;100.00;101213.03;5032044;28;20033;-77
2024/02/03 05:53:26;;;;;;;21.17;10.13;;;9.20;99.90;;;12.74;100.00;101215.09;5033613;28;20048;-78
2024/02/03 05:55:51;;;;;;;18.42;10.02;;;9.30;99.90;;;12.57;100.00;101202.94;5032406;28;20045;-77
2024/02/03 05:58:17;;;;;;;17.85;9.27;;;9.20;99.90;;;12.76;100.00;101198.44;5033630;28;20037;-77
2024/02/03 06:00:43;;;;;;;18.52;9.95;;;9.20;99.90;;;12.84;100.00;101197.34;5028597;28;20041;-77
2024/02/03 06:03:08;;;;;;;14.75;8.15;;;9.20;99.90;;;12.84;100.00;101214.59;5031257;28;20052;-77
2024/02/03 06:05:34;;;;;;;17.45;9.10;;;9.20;99.90;;;12.90;100.00;101191.00;5011463;28;20044;-77
2024/02/03 06:08:00;;;;;;;15.52;8.48;;;9.20;99.90;;;12.81;100.00;101193.13;5013141;28;20095;-78
2024/02/03 06:10:25;;;;;;;15.80;8.65;;;9.20;99.90;;;12.99;100.00;101197.06;5029455;28;20048;-77
2024/02/03 06:12:51;;;;;;;14.77;8.20;;;9.20;99.90;;;12.79;100.00;101198.84;5028594;28;20049;-79
2024/02/03 06:15:17;;;;;;;17.02;7.78;;;9.30;99.90;;;12.74;100.00;101193.19;5030996;28;20045;-78
2024/02/03 06:17:44;;;;;;;12.80;7.18;;;9.20;99.90;;;12.92;100.00;101199.81;5012648;28;20041;-78
2024/02/03 06:20:10;;;;;;;12.60;6.78;;;9.20;99.90;;;12.58;100.00;101188.19;5030658;28;20064;-78
2024/02/03 06:22:36;;;;;;;12.73;7.30;;;9.30;99.90;;;12.64;100.00;101204.59;5032788;28;20049;-76
2024/02/03 06:25:01;;;;;;;13.63;7.82;;;9.30;99.90;;;12.96;100.00;101190.09;5038520;28;20090;-78
2024/02/03 06:27:27;;;;;;;14.10;7.57;;;9.30;99.90;;;12.93;100.00;101204.25;5020974;28;20037;-76
2024/02/03 06:29:53;;;;;;;12.52;6.95;;;9.30;99.90;;;12.71;100.00;101195.50;5044472;28;20045;-76
2024/02/03 06:32:18;;;;;;;11.35;6.97;;;9.30;99.90;;;13.09;100.00;101186.44;5031481;28;20030;-79
2024/02/03 06:34:44;;;;;;;13.20;7.20;;;9.30;99.90;;;12.67;100.00;101211.53;5030982;28;20041;-76
2024/02/03 06:37:10;;;;;;;14.25;7.82;;;9.30;99.90;;;12.74;100.00;101189.59;5031559;28;20041;-78
2024/02/03 06:39:36;;;;;;;13.95;7.55;;;9.30;99.90;;;12.65;100.00;101208.16;5037261;28;20078;-76
2024/02/03 06:42:02;;;;;;;13.90;8.25;;;9.30;99.90;;;12.68;100.00;101201.44;5029932;28;20045;-77
2024/02/03 06:44:27;;;;;;;13.85;7.72;;;9.30;99.90;;;12.79;100.00;101187.03;5032821;28;20033;-76
2024/02/03 06:46:53;;;;;;;15.07;8.23;;;9.30;99.90;;;12.74;100.00;101208.75;5030207;28;20044;-75
2024/02/03 06:49:19;;;;;;;15.10;7.30;;;9.30;99.90;;;12.71;100.00;101188.13;5029624;28;20056;-77
2024/02/03 06:51:44;;;;;;;12.63;6.90;;;9.20;99.90;;;12.61;100.00;101218.72;5029960;28;20033;-77
2024/02/03 06:54:11;;;;;;;14.48;7.30;;;9.20;99.90;;;12.52;100.00;101220.84;5030288;28;20083;-77
2024/02/03 06:56:36;;;;;;;12.85;7.03;;;9.30;99.90;;;12.64;100.00;101210.09;5030419;28;20041;-76
2024/02/03 06:59:02;;;;;;;13.10;7.40;;;9.20;99.90;;;12.49;100.00;101209.50;5028982;28;20115;-76
2024/02/03 07:01:28;;;;;;;11.88;6.25;;;9.30;99.90;;;12.50;100.00;101209.28;5030060;28;20041;-77
2024/02/03 07:03:54;;;;;;;12.45;6.70;;;9.20;99.90;;;12.82;100.00;101202.22;5028843;28;20136;-76
2024/02/03 07:06:19;;;;;;;11.38;6.35;;;9.20;99.90;;;12.63;100.00;101213.03;5026061;28;20034;-76
2024/02/03 07:08:45;;;;;;;11.75;6.63;;;9.30;99.90;;;12.56;100.00;101206.75;5041042;28;20130;-76
2024/02/03 07:11:11;;;;;;;10.85;6.45;;;9.20;99.90;;;12.57;100.00;101211.16;5028228;28;20558;-75
2024/02/03 07:13:38;;;;;;;10.38;5.63;;;9.30;99.90;;;12.41;100.00;101204.25;5025836;28;20088;-76
2024/02/03 07:16:05;;;;;;;10.33;5.77;;;9.20;99.90;;;12.64;100.00;101217.44;5025903;28;20104;-77
2024/02/03 07:18:30;;;;;;;10.32;5.50;;;9.30;99.90;;;12.79;100.00;101215.28;5029290;28;20049;-77
2024/02/03 07:20:56;;;;;;;10.38;5.45;;;9.30;99.90;;;12.58;100.00;101240.19;5029159;28;20029;-77
2024/02/03 07:23:22;;;;;;;9.50;5.38;;;9.30;99.90;;;12.66;100.00;101204.38;5028460;28;20049;-77
2024/02/03 07:25:48;;;;;;;9.77;5.50;;;9.30;99.90;;;12.69;100.00;101216.78;5029347;28;20043;-77
2024/02/03 07:28:14;;;;;;;9.70;5.80;;;9.30;99.90;;;12.94;100.00;101201.28;5028430;28;20132;-78
2024/02/03 07:30:40;;;;;;;9.52;4.93;;;9.30;99.90;;;12.66;100.00;101237.22;5029598;28;20037;-77
2024/02/03 07:33:07;;;;;;;9.00;4.78;;;9.40;99.90;;;12.80;100.00;101216.09;5028875;28;20112;-77
2024/02/03 07:35:34;;;;;;;8.48;4.63;;;9.40;99.90;;;12.95;100.00;101204.84;5023298;28;20049;-77
2024/02/03 07:37:59;;;;;;;8.60;5.07;;;9.40;99.90;;;13.06;100.00;101223.34;5028992;28;20041;-77
2024/02/03 07:40:25;;;;;;;9.48;5.20;;;9.50;99.90;;;13.11;100.00;101211.72;5029532;28;20069;-77
2024/02/03 07:42:51;;;;;;;8.45;5.22;;;9.50;99.90;;;13.00;100.00;101217.91;5029350;28;20091;-78
2024/02/03 07:45:17;;;;;;;7.22;4.57;;;9.50;99.90;;;12.93;100.00;101212.44;5044866;28;20385;-77
2024/02/03 07:47:43;;;;;;;8.10;5.03;;;9.60;99.90;;;13.27;100.00;101213.13;5012006;28;20033;-77
2024/02/03 07:50:09;;;;;;;7.85;4.90;;;9.60;99.90;;;13.11;100.00;101224.59;5028473;28;20072;-78
2024/02/03 07:52:35;;;;;;;7.70;4.78;;;9.60;99.90;;;13.06;100.00;101211.53;5029447;28;20064;-77
2024/02/03 07:55:03;;;;;;;6.97;4.40;;;9.60;99.90;;;13.49;100.00;101219.09;5028146;28;20148;-77
2024/02/03 07:57:29;;;;;;;7.82;5.03;;;9.70;99.90;;;13.26;100.00;101222.41;5025382;28;20041;-76
2024/02/03 07:59:55;;;;;;;6.75;4.70;;;9.70;99.90;;;13.27;100.00;101223.22;5031277;28;20475;-78
2024/02/03 08:02:21;;;;;;;7.75;5.22;;;9.80;99.90;;;13.68;100.00;101223.81;5033486;28;20041;-76
2024/02/03 08:04:46;;;;;;;7.25;5.20;;;9.80;99.90;;;13.57;100.00;101226.22;5048086;28;20068;-77
2024/02/03 08:07:12;;;;;;;8.65;5.47;;;9.80;99.90;;;13.48;100.00;101227.53;5048889;28;20127;-77
2024/02/03 08:09:38;;;;;;;8.52;6.13;;;;;;;13.40;100.00;101200.38;5032512;28;20041;-77
2024/02/03 08:12:05;;;;;;;9.02;5.68;;;;;;;13.40;100.00;101209.44;5015528;28;20061;-76
2024/02/03 08:14:31;;;;;;;7.50;5.13;;;;;;;13.52;100.00;101212.31;5031436;28;20040;-78
2024/02/03 08:16:57;;;;;;;7.35;5.13;;;;;;;13.72;100.00;101217.66;5030655;28;20079;-77
2024/02/03 08:19:23;;;;;;;6.95;4.80;;;;;;;13.93;100.00;101221.88;5046091;28;20073;-77
2024/02/03 08:21:49;;;;;;;7.45;5.20;;;;;;;13.28;100.00;101244.94;5030310;28;20121;-78
2024/02/03 08:24:15;;;;;;;7.57;5.15;;;;;;;13.90;100.00;101233.31;5030340;28;20029;-78
2024/02/03 08:26:42;;;;;;;8.70;5.57;;;;;;;13.73;100.00;101227.56;5029640;28;20037;-79
2024/02/03 08:29:08;;;;;;;8.45;5.43;;;;;;;13.95;100.00;101227.97;5030083;28;20033;-78
2024/02/03 08:31:34;;;;;;;8.88;5.32;;;;;;;13.72;100.00;101238.72;5030076;28;20044;-78
2024/02/03 08:34:00;;;;;;;7.47;4.82;;;;;;;13.70;100.00;101235.38;5030290;28;20665;-78
2024/02/03 08:36:26;;;;;;;7.65;5.40;;;;;;;13.70;100.00;101224.41;5029620;28;20091;-78
2024/02/03 08:38:52;;;;;;;7.57;4.57;;;;;;;13.72;100.00;101233.25;5030147;28;20556;-78
2024/02/03 08:41:18;;;;;;;6.80;4.43;;;;;;;13.74;100.00;101220.16;5029128;28;20033;-79
2024/02/03 08:43:44;;;;;;;8.00;4.53;;;;;;;13.88;100.00;101229.97;5030255;28;20421;-78
2024/02/03 08:46:10;;;;;;;7.93;4.93;;;;;;;13.72;100.00;101225.88;5030668;28;20107;-78
2024/02/03 08:48:36;;;;;;;7.43;5.35;;;;;;;13.78;100.00;101244.16;5010533;28;20493;-78
2024/02/03 08:51:03;;;;;;;6.32;4.65;;;;;;;13.93;100.00;101237.53;5029737;28;20049;-79
2024/02/03 08:53:29;;;;;;;6.65;4.80;;;;;;;13.43;100.00;101236.44;4998085;28;20129;-78
2024/02/03 08:55:55;;;;;;;7.43;5.40;;;;;;;13.43;100.00;101262.97;5005718;28;20034;-77
2024/02/03 08:58:21;;;;;;;6.85;4.53;;;;;;;12.76;100.00;101243.09;5012354;28;20041;-79
2024/02/03 09:00:47;;;;;;;8.13;4.90;;;;;;;13.48;100.00;101233.88;5022764;28;20485;-79
2024/02/03 09:03:13;;;;;;;7.40;4.82;;;;;;;13.78;100.00;101248.81;5028926;28;20508;-78
2024/02/03 09:05:39;;;;;;;7.43;5.47;;;;;;;13.97;100.00;101251.59;5027894;28;20038;-78
2024/02/03 09:08:05;;;;;;;7.70;5.43;;;;;;;13.79;100.00;101254.06;5007143;28;20037;-78
2024/02/03 09:10:32;;;;;;;8.10;5.47;;;;;;;13.46;100.00;101255.16;5028421;28;20535;-78
2024/02/03 09:12:58;;;;;;;7.57;5.32;;;;;;;13.35;100.00;101255.84;5029156;28;20049;-78
2024/02/03 09:15:24;;;;;;;7.95;5.55;;;;;;;13.80;100.00;101263.16;5029083;28;20091;-78
2024/02/03 09:17:50;;;;;;;8.70;5.43;;;;;;;13.42;100.00;101253.91;5012457;28;20044;-78
2024/02/03 09:20:16;;;;;;;7.88;4.82;;;;;;;13.54;100.00;101255.97;5029277;28;20065;-78
2024/02/03 09:22:43;;;;;;;6.80;4.72;;;;;;;13.84;100.00;101266.28;5012172;28;20408;-78
2024/02/03 09:25:10;;;;;;;6.20;4.32;;;;;;;13.61;100.00;101254.84;5029037;28;20539;-80
2024/02/03 09:27:36;;;;;;;5.45;4.05;;;;;;;13.61;100.00;101274.03;5028560;28;20408;-78
2024/02/03 09:30:04;;;;;;;5.18;3.70;;;;;;;13.69;100.00;101259.22;5028597;28;20045;-80
2024/02/03 09:32:30;;;;;;;5.60;3.83;;;;;;;13.86;100.00;101267.75;5024887;28;20093;-79
2024/02/03 09:34:56;;;;;;;6.82;4.22;;;;;;;13.94;100.00;101277.59;5029047;28;20084;-78
2024/02/03 09:37:22;;;;;;;5.43;3.72;;;;;;;14.04;100.00;101269.69;5028990;28;20087;-79
2024/02/03 09:39:48;;;;;;;6.13;4.15;;;;;;;13.82;100.00;101266.50;4985353;28;20036;-79
2024/02/03 09:42:15;;;;;;;5.03;3.55;;;;;;;13.87;100.00;101277.66;5008758;28;20091;-79
2024/02/03 09:44:43;;;;;;;4.57;3.50;;;;;;;14.03;100.00;101278.97;4999805;28;20033;-80
2024/02/03 09:47:13;;;;;;;5.25;3.53;;;;;;;13.70;100.00;101273.75;4999596;28;20587;-80
2024/02/03 09:49:39;;;;;;;5.15;3.55;;;;;;;13.28;100.00;101266.84;5029155;28;20449;-79
2024/02/03 09:52:07;;;;;;;5.78;3.80;;;;;;;13.62;100.00;101274.88;5010539;28;20455;-79
2024/02/03 09:54:33;;;;;;;6.60;4.40;;;;;;;13.63;100.00;101258.22;5028688;28;20041;-80
2024/02/03 09:57:02;;;;;;;5.88;4.03;;;;;;;13.71;100.00;101289.16;5028787;28;20052;-79
2024/02/03 09:59:28;;;;;;;6.60;4.13;;;;;;;13.92;100.00;101275.06;5029061;28;20111;-79
2024/02/03 10:01:54;;;;;;;7.15;4.38;;;;;;;14.06;100.00;101273.03;5029130;28;20047;-79
2024/02/03 10:04:20;;;;;;;7.35;4.63;;;;;;;13.61;100.00;101273.19;5026552;28;20489;-78
2024/02/03 10:06:47;;;;;;;6.85;4.45;;;;;;;13.82;100.00;101277.47;5028179;28;20033;-80
2024/02/03 10:09:32;;;;;;;7.67;4.50;;;;;;;13.80;100.00;101276.88;5031957;28;20477;-80